createdAt,value
2022-11-20T00:01:32.793Z,54.66
2022-11-20T00:04:00.557Z,54.59
2022-11-20T00:06:29.646Z,54.71
2022-11-20T00:09:00.029Z,54.58
2022-11-20T00:11:30.309Z,54.56
2022-11-20T00:14:01.632Z,54.71
2022-11-20T00:16:32.452Z,54.73
2022-11-20T00:18:59.915Z,54.67
2022-11-20T00:21:29.413Z,54.77
2022-11-20T00:23:58.482Z,54.80
2022-11-20T00:26:28.625Z,54.51
2022-11-20T00:29:01.972Z,54.62
2022-11-20T00:31:31.333Z,54.90
2022-11-20T00:33:58.811Z,54.84
2022-11-20T00:36:28.832Z,54.85
2022-11-20T00:38:58.989Z,54.79
2022-11-20T00:41:29.058Z,54.88
2022-11-20T00:43:57.552Z,54.75
2022-11-20T00:46:27.484Z,54.76
2022-11-20T00:48:55.050Z,54.52
2022-11-20T00:51:26.342Z,54.40
2022-11-20T00:53:56.381Z,54.66
2022-11-20T00:56:23.627Z,54.72
2022-11-20T00:58:51.137Z,55.01
2022-11-20T01:01:25.315Z,54.55
2022-11-20T01:03:57.605Z,54.38
2022-11-20T01:06:37.541Z,54.63
2022-11-20T01:09:12.345Z,54.84
2022-11-20T01:11:43.908Z,54.37
2022-11-20T01:14:15.541Z,54.30
2022-11-20T01:16:47.240Z,54.69
2022-11-20T01:19:18.667Z,55.08
2022-11-20T01:21:52.176Z,54.73
2022-11-20T01:24:21.847Z,54.89
2022-11-20T01:26:51.775Z,54.64
2022-11-20T01:29:25.607Z,54.49
2022-11-20T01:31:53.747Z,54.86
2022-11-20T01:34:23.341Z,55.01
2022-11-20T01:36:52.504Z,54.95
2022-11-20T01:39:23.733Z,54.89
2022-11-20T01:41:53.277Z,54.83
2022-11-20T01:44:43.489Z,54.81
2022-11-20T01:47:17.088Z,55.19
2022-11-20T01:49:53.630Z,55.00
2022-11-20T01:52:37.555Z,55.03
2022-11-20T01:55:23.012Z,55.38
2022-11-20T01:57:50.979Z,55.30
2022-11-20T02:00:20.915Z,55.07
2022-11-20T02:03:06.690Z,55.13
2022-11-20T02:05:55.844Z,55.14
2022-11-20T02:08:24.425Z,55.09
2022-11-20T02:10:51.752Z,54.95
2022-11-20T02:13:19.531Z,55.07
2022-11-20T02:15:47.853Z,54.94
2022-11-20T02:18:21.377Z,55.27
2022-11-20T02:20:56.283Z,55.21
2022-11-20T02:23:32.515Z,55.31
2022-11-20T02:26:02.920Z,55.43
2022-11-20T02:28:30.287Z,55.22
2022-11-20T02:30:57.547Z,55.18
2022-11-20T02:33:24.773Z,55.40
2022-11-20T02:35:52.076Z,55.27
2022-11-20T02:38:19.492Z,55.18
2022-11-20T02:40:49.314Z,55.43
2022-11-20T02:43:18.922Z,55.42
2022-11-20T02:45:46.145Z,55.20
2022-11-20T02:48:13.328Z,55.32
2022-11-20T02:50:41.393Z,55.15
2022-11-20T02:53:08.962Z,55.37
2022-11-20T02:55:37.380Z,55.46
2022-11-20T02:58:04.611Z,55.36
2022-11-20T03:00:32.189Z,55.56
2022-11-20T03:02:59.485Z,55.72
2022-11-20T03:05:26.747Z,55.44
2022-11-20T03:07:54.052Z,55.66
2022-11-20T03:10:21.229Z,55.66
2022-11-20T03:12:48.530Z,55.55
2022-11-20T03:15:16.125Z,55.46
2022-11-20T03:17:43.277Z,55.69
2022-11-20T03:20:11.203Z,55.48
2022-11-20T03:22:38.770Z,55.51
2022-11-20T03:25:07.156Z,55.64
2022-11-20T03:27:35.769Z,55.35
2022-11-20T03:30:03.778Z,55.44
2022-11-20T03:32:30.989Z,55.35
2022-11-20T03:34:58.345Z,54.99
2022-11-20T03:37:25.492Z,54.72
2022-11-20T03:39:52.684Z,54.92
2022-11-20T03:42:19.851Z,55.36
2022-11-20T03:44:47.030Z,55.20
2022-11-20T03:47:14.203Z,55.32
2022-11-20T03:49:41.384Z,55.68
2022-11-20T03:52:08.666Z,55.44
2022-11-20T03:54:35.882Z,55.18
2022-11-20T03:57:03.130Z,55.17
2022-11-20T03:59:30.458Z,55.10
2022-11-20T04:01:57.824Z,55.34
2022-11-20T04:04:25.164Z,55.14
2022-11-20T04:06:52.361Z,55.45
2022-11-20T04:09:19.964Z,55.95
2022-11-20T04:11:47.353Z,55.73
2022-11-20T04:14:17.280Z,55.46
2022-11-20T04:16:44.626Z,55.35
2022-11-20T04:19:15.598Z,55.45
2022-11-20T04:21:44.726Z,55.90
2022-11-20T04:24:12.319Z,55.85
2022-11-20T04:26:40.496Z,56.07
2022-11-20T04:29:11.161Z,55.46
2022-11-20T04:31:38.493Z,55.80
2022-11-20T04:34:08.409Z,55.67
2022-11-20T04:36:36.232Z,55.62
2022-11-20T04:39:07.346Z,55.64
2022-11-20T04:41:37.348Z,55.86
2022-11-20T04:44:06.809Z,55.88
2022-11-20T04:46:43.427Z,55.96
2022-11-20T04:49:12.841Z,55.67
2022-11-20T04:51:40.217Z,55.55
2022-11-20T04:54:07.413Z,55.73
2022-11-20T04:56:34.656Z,55.19
2022-11-20T04:59:03.530Z,55.34
2022-11-20T05:01:31.532Z,55.62
2022-11-20T05:03:58.807Z,55.50
2022-11-20T05:06:26.060Z,55.70
2022-11-20T05:08:53.206Z,55.69
2022-11-20T05:11:22.662Z,55.64
2022-11-20T05:13:52.847Z,55.46
2022-11-20T05:16:25.546Z,55.42
2022-11-20T05:18:54.650Z,55.23
2022-11-20T05:21:23.140Z,55.51
2022-11-20T05:23:50.296Z,55.46
2022-11-20T05:26:23.653Z,55.50
2022-11-20T05:28:52.259Z,55.47
2022-11-20T05:31:27.986Z,55.70
2022-11-20T05:33:58.149Z,55.72
2022-11-20T05:36:26.347Z,55.56
2022-11-20T05:38:58.078Z,55.72
2022-11-20T05:41:27.425Z,55.60
2022-11-20T05:43:54.570Z,55.87
2022-11-20T05:46:28.815Z,56.17
2022-11-20T05:48:58.391Z,55.85
2022-11-20T05:51:26.950Z,55.84
2022-11-20T05:53:54.517Z,55.67
2022-11-20T05:56:23.059Z,55.76
2022-11-20T05:58:51.012Z,55.94
2022-11-20T06:01:25.707Z,55.87
2022-11-20T06:03:57.286Z,55.76
2022-11-20T06:06:24.850Z,56.05
2022-11-20T06:08:52.175Z,55.82
2022-11-20T06:11:19.788Z,55.88
2022-11-20T06:13:48.086Z,55.81
2022-11-20T06:16:19.787Z,55.89
2022-11-20T06:18:48.240Z,55.65
2022-11-20T06:21:22.508Z,55.52
2022-11-20T06:23:53.241Z,55.56
2022-11-20T06:26:26.321Z,55.27
2022-11-20T06:28:55.200Z,55.13
2022-11-20T06:31:25.334Z,55.42
2022-11-20T06:33:53.380Z,55.39
2022-11-20T06:36:23.497Z,55.45
2022-11-20T06:38:55.056Z,55.63
2022-11-20T06:41:23.509Z,56.06
2022-11-20T06:43:50.818Z,55.90
2022-11-20T06:46:20.574Z,55.92
2022-11-20T06:48:49.959Z,55.90
2022-11-20T06:51:18.081Z,55.63
2022-11-20T06:53:45.647Z,55.54
2022-11-20T06:56:12.786Z,55.62
2022-11-20T06:58:46.096Z,55.82
2022-11-20T07:01:16.627Z,55.94
2022-11-20T07:03:44.248Z,56.10
2022-11-20T07:06:11.964Z,56.57
2022-11-20T07:08:39.288Z,56.26
2022-11-20T07:11:08.542Z,56.40
2022-11-20T07:13:36.302Z,56.10
2022-11-20T07:16:07.974Z,56.13
2022-11-20T07:18:36.097Z,56.67
2022-11-20T07:21:09.815Z,58.63
2022-11-20T07:23:38.091Z,57.82
2022-11-20T07:26:11.797Z,57.65
2022-11-20T07:28:39.635Z,57.45
2022-11-20T07:31:08.117Z,57.79
2022-11-20T07:33:35.321Z,57.86
2022-11-20T07:36:03.061Z,57.64
2022-11-20T07:38:30.603Z,57.59
2022-11-20T07:40:58.965Z,57.47
2022-11-20T07:43:26.635Z,57.20
2022-11-20T07:45:56.784Z,57.28
2022-11-20T07:48:24.932Z,57.46
2022-11-20T07:50:58.598Z,57.10
2022-11-20T07:53:26.205Z,57.07
2022-11-20T07:55:53.657Z,57.09
2022-11-20T07:58:22.164Z,56.94
2022-11-20T08:00:50.043Z,56.99
2022-11-20T08:03:24.082Z,56.87
2022-11-20T08:05:52.111Z,56.90
2022-11-20T08:08:19.289Z,57.03
2022-11-20T08:10:46.695Z,56.80
2022-11-20T08:13:13.900Z,56.74
2022-11-20T08:15:41.962Z,56.96
2022-11-20T08:18:30.554Z,57.15
2022-11-20T08:20:59.149Z,56.78
2022-11-20T08:23:26.703Z,56.77
2022-11-20T08:25:55.976Z,56.96
2022-11-20T08:28:34.420Z,56.61
2022-11-20T08:31:03.260Z,56.59
2022-11-20T08:33:31.364Z,56.80
2022-11-20T08:36:06.940Z,56.57
2022-11-20T08:38:36.631Z,56.60
2022-11-20T08:41:06.245Z,56.86
2022-11-20T08:43:33.508Z,57.29
2022-11-20T08:46:00.892Z,57.52
2022-11-20T08:48:28.082Z,57.49
2022-11-20T08:51:00.478Z,57.31
2022-11-20T08:53:28.791Z,57.24
2022-11-20T08:55:58.325Z,57.35
2022-11-20T08:58:27.021Z,57.09
2022-11-20T09:00:55.057Z,57.68
2022-11-20T09:03:22.350Z,58.61
2022-11-20T09:05:49.492Z,58.18
2022-11-20T09:08:16.864Z,58.81
2022-11-20T09:10:44.389Z,58.88
2022-11-20T09:13:11.594Z,58.29
2022-11-20T09:15:38.752Z,56.86
2022-11-20T09:18:06.469Z,56.58
2022-11-20T09:20:34.606Z,56.25
2022-11-20T09:23:02.440Z,55.71
2022-11-20T09:25:30.563Z,55.42
2022-11-20T09:27:59.831Z,55.09
2022-11-20T09:30:27.830Z,55.12
2022-11-20T09:32:55.551Z,54.98
2022-11-20T09:35:25.291Z,54.55
2022-11-20T09:37:53.022Z,54.12
2022-11-20T09:40:30.548Z,53.85
2022-11-20T09:43:35.236Z,54.00
2022-11-20T09:46:37.749Z,53.70
2022-11-20T09:49:43.918Z,53.84
2022-11-20T09:52:49.377Z,53.05
2022-11-20T09:55:18.947Z,52.90
2022-11-20T09:57:51.990Z,52.27
2022-11-20T10:00:20.383Z,52.11
2022-11-20T10:03:21.289Z,51.72
2022-11-20T10:05:56.598Z,51.59
2022-11-20T10:08:40.811Z,50.94
2022-11-20T10:11:32.852Z,50.09
2022-11-20T10:14:32.833Z,50.64
2022-11-20T10:17:31.641Z,50.93
2022-11-20T10:20:42.184Z,50.35
2022-11-20T10:23:57.899Z,48.56
2022-11-20T10:26:37.038Z,48.90
2022-11-20T10:29:16.700Z,49.30
2022-11-20T10:31:48.893Z,49.70
2022-11-20T10:34:55.224Z,49.22
2022-11-20T10:37:32.268Z,49.54
2022-11-20T10:40:21.641Z,47.59
2022-11-20T10:43:16.011Z,46.88
2022-11-20T10:46:19.705Z,46.86
2022-11-20T10:48:48.280Z,46.91
2022-11-20T10:51:41.132Z,46.29
2022-11-20T10:54:14.010Z,46.82
2022-11-20T10:56:53.189Z,47.17
2022-11-20T10:59:58.120Z,47.59
2022-11-20T11:02:55.624Z,47.54
2022-11-20T11:05:52.913Z,46.56
2022-11-20T11:08:21.117Z,47.45
2022-11-20T11:11:32.881Z,47.30
2022-11-20T11:14:15.847Z,47.56
2022-11-20T11:16:54.050Z,46.83
2022-11-20T11:19:21.862Z,46.59
2022-11-20T11:22:00.514Z,46.71
2022-11-20T11:24:46.969Z,47.17
2022-11-20T11:27:17.574Z,47.94
2022-11-20T11:29:46.812Z,47.15
2022-11-20T11:32:19.746Z,46.44
2022-11-20T11:35:00.429Z,43.99
2022-11-20T11:37:38.869Z,43.41
2022-11-20T11:40:23.870Z,43.77
2022-11-20T11:42:59.298Z,43.88
2022-11-20T11:45:28.007Z,41.64
2022-11-20T11:48:01.567Z,39.16
2022-11-20T11:50:30.792Z,36.88
2022-11-20T11:53:15.407Z,34.83
2022-11-20T11:56:17.767Z,34.98
2022-11-20T11:58:52.687Z,36.03
2022-11-20T12:01:49.992Z,36.65
2022-11-20T12:04:41.465Z,38.39
2022-11-20T12:07:47.370Z,39.19
2022-11-20T12:10:58.833Z,40.17
2022-11-20T12:13:42.297Z,41.23
2022-11-20T12:16:16.356Z,41.94
2022-11-20T12:18:44.395Z,42.38
2022-11-20T12:21:24.066Z,43.15
2022-11-20T12:24:37.837Z,42.88
2022-11-20T12:27:59.640Z,43.12
2022-11-20T12:30:27.415Z,43.66
2022-11-20T12:33:34.711Z,44.06
2022-11-20T12:36:42.048Z,44.48
2022-11-20T12:39:36.827Z,45.12
2022-11-20T12:42:27.697Z,45.71
2022-11-20T12:45:29.167Z,45.96
2022-11-20T12:48:16.609Z,46.12
2022-11-20T12:51:27.445Z,46.60
2022-11-20T12:54:38.099Z,47.08
2022-11-20T12:57:35.770Z,47.00
2022-11-20T13:00:21.436Z,47.73
2022-11-20T13:03:29.271Z,47.72
2022-11-20T13:06:12.058Z,47.93
2022-11-20T13:08:53.383Z,48.35
2022-11-20T13:11:41.592Z,48.48
2022-11-20T13:14:57.001Z,48.51
2022-11-20T13:17:46.767Z,48.91
2022-11-20T13:20:20.220Z,49.21
2022-11-20T13:22:52.975Z,49.12
2022-11-20T13:25:41.378Z,49.09
2022-11-20T13:28:11.595Z,49.24
2022-11-20T13:30:52.502Z,49.46
2022-11-20T13:33:36.632Z,49.33
2022-11-20T13:36:21.421Z,49.28
2022-11-20T13:38:52.762Z,49.51
2022-11-20T13:41:35.913Z,48.99
2022-11-20T13:44:24.514Z,49.38
2022-11-20T13:46:52.232Z,49.93
2022-11-20T13:49:30.845Z,49.75
2022-11-20T13:52:23.628Z,50.12
2022-11-20T13:55:11.916Z,49.93
2022-11-20T13:57:43.894Z,49.69
2022-11-20T14:00:19.178Z,49.56
2022-11-20T14:03:07.764Z,49.03
2022-11-20T14:05:41.108Z,48.41
2022-11-20T14:08:28.266Z,48.27
2022-11-20T14:11:18.230Z,48.12
2022-11-20T14:14:21.700Z,47.89
2022-11-20T14:16:50.947Z,48.16
2022-11-20T14:19:24.001Z,48.18
2022-11-20T14:22:08.756Z,47.89
2022-11-20T14:24:36.214Z,48.50
2022-11-20T14:27:03.822Z,48.72
2022-11-20T14:29:37.427Z,48.86
2022-11-20T14:32:05.989Z,48.87
2022-11-20T14:34:41.455Z,48.71
2022-11-20T14:37:21.266Z,48.64
2022-11-20T14:39:57.240Z,49.06
2022-11-20T14:42:28.557Z,49.53
2022-11-20T14:45:02.178Z,49.84
2022-11-20T14:47:32.520Z,50.21
2022-11-20T14:50:05.877Z,49.44
2022-11-20T14:52:36.015Z,49.53
2022-11-20T14:55:03.574Z,50.03
2022-11-20T14:57:37.530Z,49.18
2022-11-20T15:00:08.343Z,49.58
2022-11-20T15:02:40.093Z,49.62
2022-11-20T15:05:07.863Z,50.12
2022-11-20T15:07:40.033Z,50.09
2022-11-20T15:10:28.914Z,49.82
2022-11-20T15:13:13.042Z,49.79
2022-11-20T15:15:53.239Z,49.01
2022-11-20T15:18:27.872Z,49.53
2022-11-20T15:20:58.846Z,49.85
2022-11-20T15:23:28.854Z,49.75
2022-11-20T15:25:56.938Z,49.80
2022-11-20T15:28:36.667Z,49.78
2022-11-20T15:31:05.088Z,50.15
2022-11-20T15:33:34.425Z,49.97
2022-11-20T15:36:02.217Z,49.75
2022-11-20T15:38:29.523Z,49.76
2022-11-20T15:40:57.588Z,50.01
2022-11-20T15:43:25.163Z,49.91
2022-11-20T15:46:03.335Z,49.97
2022-11-20T15:48:47.602Z,49.85
2022-11-20T15:51:42.425Z,49.71
2022-11-20T15:54:20.424Z,49.92
2022-11-20T15:56:50.003Z,49.96
2022-11-20T15:59:18.122Z,50.22
2022-11-20T16:01:45.616Z,50.31
2022-11-20T16:04:16.006Z,49.90
2022-11-20T16:06:44.098Z,50.37
2022-11-20T16:09:11.863Z,50.53
2022-11-20T16:11:39.262Z,50.83
2022-11-20T16:14:07.359Z,50.64
2022-11-20T16:16:38.143Z,50.57
2022-11-20T16:19:05.664Z,50.78
2022-11-20T16:21:33.125Z,50.74
2022-11-20T16:24:03.696Z,50.36
2022-11-20T16:26:31.826Z,50.28
2022-11-20T16:29:01.747Z,50.68
2022-11-20T16:31:29.341Z,50.87
2022-11-20T16:33:59.965Z,51.20
2022-11-20T16:36:29.461Z,51.21
2022-11-20T16:39:03.708Z,51.14
2022-11-20T16:41:34.816Z,51.24
2022-11-20T16:44:08.359Z,51.32
2022-11-20T16:46:36.326Z,51.44
2022-11-20T16:49:12.289Z,51.49
2022-11-20T16:51:39.643Z,51.58
2022-11-20T16:54:09.225Z,51.61
2022-11-20T16:56:37.404Z,51.60
2022-11-20T16:59:11.152Z,51.85
2022-11-20T17:01:38.740Z,51.64
2022-11-20T17:04:08.135Z,51.67
2022-11-20T17:06:39.003Z,51.44
2022-11-20T17:09:07.476Z,51.75
2022-11-20T17:11:34.805Z,51.79
2022-11-20T17:14:02.296Z,51.59
2022-11-20T17:16:32.472Z,51.58
2022-11-20T17:19:03.344Z,52.03
2022-11-20T17:21:35.654Z,51.81
2022-11-20T17:24:09.108Z,51.75
2022-11-20T17:26:38.567Z,51.77
2022-11-20T17:29:13.556Z,51.73
2022-11-20T17:31:42.073Z,51.53
2022-11-20T17:34:12.970Z,51.70
2022-11-20T17:36:44.807Z,51.70
2022-11-20T17:39:15.012Z,51.86
2022-11-20T17:41:42.463Z,51.87
2022-11-20T17:44:12.044Z,51.74
2022-11-20T17:46:39.959Z,51.72
2022-11-20T17:49:07.207Z,51.63
2022-11-20T17:51:35.594Z,51.79
2022-11-20T17:54:06.386Z,51.65
2022-11-20T17:56:35.875Z,52.08
2022-11-20T17:59:08.757Z,52.07
2022-11-20T18:01:36.509Z,52.39
2022-11-20T18:04:04.328Z,52.53
2022-11-20T18:06:32.584Z,52.31
2022-11-20T18:09:01.940Z,52.48
2022-11-20T18:11:33.464Z,52.45
2022-11-20T18:14:03.349Z,52.47
2022-11-20T18:16:34.878Z,52.53
2022-11-20T18:19:02.456Z,52.36
2022-11-20T18:21:31.202Z,52.62
2022-11-20T18:23:58.956Z,52.17
2022-11-20T18:26:26.795Z,52.32
2022-11-20T18:28:54.772Z,52.47
2022-11-20T18:31:22.076Z,52.52
2022-11-20T18:33:49.591Z,52.70
2022-11-20T18:36:20.999Z,52.64
2022-11-20T18:38:51.833Z,52.31
2022-11-20T18:41:22.476Z,52.77
2022-11-20T18:43:49.747Z,52.61
2022-11-20T18:46:17.257Z,52.69
2022-11-20T18:48:44.552Z,52.19
2022-11-20T18:51:12.202Z,52.44
2022-11-20T18:53:44.342Z,52.50
2022-11-20T18:56:14.293Z,52.49
2022-11-20T18:58:41.518Z,52.45
2022-11-20T19:01:09.078Z,52.46
2022-11-20T19:03:36.436Z,52.26
2022-11-20T19:06:03.739Z,52.69
2022-11-20T19:08:34.396Z,52.77
2022-11-20T19:11:09.743Z,52.82
2022-11-20T19:13:37.935Z,52.43
2022-11-20T19:16:13.062Z,52.73
2022-11-20T19:18:41.264Z,52.94
2022-11-20T19:21:15.120Z,52.83
2022-11-20T19:23:42.672Z,53.05
2022-11-20T19:26:10.053Z,53.11
2022-11-20T19:28:38.014Z,52.94
2022-11-20T19:31:10.580Z,53.19
2022-11-20T19:33:39.247Z,53.09
2022-11-20T19:36:20.580Z,52.91
2022-11-20T19:38:51.234Z,53.11
2022-11-20T19:41:25.999Z,53.23
2022-11-20T19:43:53.182Z,53.21
2022-11-20T19:46:20.394Z,52.69
2022-11-20T19:48:47.777Z,52.72
2022-11-20T19:51:21.808Z,53.18
2022-11-20T19:53:53.302Z,53.22
2022-11-20T19:56:20.507Z,53.07
2022-11-20T19:58:47.846Z,53.28
2022-11-20T20:01:19.283Z,53.18
2022-11-20T20:03:48.522Z,53.33
2022-11-20T20:06:21.824Z,52.99
2022-11-20T20:09:13.319Z,52.82
2022-11-20T20:11:44.962Z,53.22
2022-11-20T20:14:15.716Z,53.11
2022-11-20T20:16:43.485Z,53.19
2022-11-20T20:19:18.667Z,52.91
2022-11-20T20:21:46.003Z,52.93
2022-11-20T20:24:13.529Z,53.22
2022-11-20T20:26:57.828Z,53.49
2022-11-20T20:29:25.983Z,53.53
2022-11-20T20:31:53.308Z,53.02
2022-11-20T20:34:22.245Z,53.39
2022-11-20T20:36:49.558Z,53.28
2022-11-20T20:39:17.113Z,53.44
2022-11-20T20:41:44.630Z,53.63
2022-11-20T20:44:11.834Z,53.39
2022-11-20T20:46:40.649Z,53.09
2022-11-20T20:49:08.831Z,53.50
2022-11-20T20:51:36.720Z,53.31
2022-11-20T20:54:04.249Z,53.73
2022-11-20T20:56:32.041Z,53.43
2022-11-20T20:58:59.195Z,53.48
2022-11-20T21:01:26.513Z,53.31
2022-11-20T21:03:53.783Z,53.14
2022-11-20T21:06:21.355Z,53.34
2022-11-20T21:08:48.612Z,53.62
2022-11-20T21:11:19.559Z,53.65
2022-11-20T21:13:48.171Z,53.86
2022-11-20T21:16:18.736Z,53.85
2022-11-20T21:18:46.279Z,53.62
2022-11-20T21:21:15.844Z,53.88
2022-11-20T21:23:47.146Z,54.02
2022-11-20T21:26:15.771Z,53.86
2022-11-20T21:28:43.233Z,53.82
2022-11-20T21:31:15.262Z,53.72
2022-11-20T21:33:48.602Z,53.99
2022-11-20T21:36:19.313Z,53.82
2022-11-20T21:38:48.755Z,53.85
2022-11-20T21:41:16.651Z,54.40
2022-11-20T21:43:44.333Z,54.28
2022-11-20T21:46:17.444Z,54.16
2022-11-20T21:48:47.238Z,53.99
2022-11-20T21:51:24.007Z,53.65
2022-11-20T21:53:53.788Z,53.94
2022-11-20T21:56:24.284Z,53.90
2022-11-20T21:58:53.681Z,54.03
2022-11-20T22:01:28.939Z,53.96
2022-11-20T22:04:00.795Z,53.78
2022-11-20T22:06:33.240Z,53.68
2022-11-20T22:09:01.522Z,54.11
2022-11-20T22:11:28.988Z,53.90
2022-11-20T22:13:56.489Z,54.00
2022-11-20T22:16:24.063Z,54.08
2022-11-20T22:18:54.373Z,54.41
2022-11-20T22:21:27.675Z,54.30
2022-11-20T22:23:55.928Z,54.31
2022-11-20T22:26:27.372Z,54.30
2022-11-20T22:28:58.282Z,54.39
2022-11-20T22:31:28.794Z,54.40
2022-11-20T22:33:57.783Z,53.95
2022-11-20T22:36:28.180Z,54.22
2022-11-20T22:38:56.011Z,54.50
2022-11-20T22:41:26.942Z,54.43
2022-11-20T22:43:57.533Z,54.46
2022-11-20T22:46:27.531Z,54.31
2022-11-20T22:48:58.254Z,54.60
2022-11-20T22:51:30.987Z,54.69
2022-11-20T22:53:58.679Z,54.68
2022-11-20T22:56:26.244Z,54.49
2022-11-20T22:58:54.577Z,54.05
2022-11-20T23:01:34.485Z,54.44
2022-11-20T23:04:06.053Z,54.43
2022-11-20T23:06:33.812Z,54.65
2022-11-20T23:09:01.518Z,54.77
2022-11-20T23:11:32.055Z,54.78
2022-11-20T23:14:03.683Z,54.91
2022-11-20T23:16:32.235Z,54.58
2022-11-20T23:19:05.230Z,54.63
2022-11-20T23:21:34.308Z,55.73
2022-11-20T23:24:01.937Z,55.33
2022-11-20T23:26:33.344Z,55.19
2022-11-20T23:29:01.173Z,55.21
2022-11-20T23:31:31.795Z,55.50
2022-11-20T23:34:00.156Z,55.41
2022-11-20T23:36:27.587Z,55.42
2022-11-20T23:38:54.820Z,55.51
2022-11-20T23:41:22.141Z,55.44
2022-11-20T23:43:49.402Z,55.45
2022-11-20T23:46:17.147Z,55.33
2022-11-20T23:48:45.598Z,55.46
2022-11-20T23:51:14.239Z,55.52
2022-11-20T23:53:41.623Z,55.90
2022-11-20T23:56:08.927Z,55.66
2022-11-20T23:58:38.639Z,56.29
